Time;durP1;ratioP1;P1;durP2;ratioP2;P2;SDS_P1;SDS_P2;PMS_P1;PMS_P2;Temp;Humidity;BMP_temperature;BMP_pressure;BME280_temperature;BME280_humidity;BME280_pressure;Samples;Min_cycle;Max_cycle;Signal;HPM_P1;HPM_P2
2024/02/17 00:01:19;;;;;;;3.20;2.40;;;16.10;64.70;;;;;;5134674;27;20160;-67
2024/02/17 00:03:44;;;;;;;2.63;2.30;;;16.10;64.80;;;;;;5134736;27;20251;-67
2024/02/17 00:06:10;;;;;;;2.13;1.98;;;16.10;64.70;;;;;;5133981;27;20702;-68
2024/02/17 00:08:35;;;;;;;3.05;2.85;;;16.10;64.70;;;;;;5134190;27;20259;-68
2024/02/17 00:11:03;;;;;;;5.20;3.05;;;16.10;64.70;;;;;;5134711;27;20168;-68
2024/02/17 00:13:28;;;;;;;2.97;2.35;;;16.10;64.70;;;;;;5133518;27;20181;-68
2024/02/17 00:15:54;;;;;;;2.97;2.47;;;16.10;64.70;;;;;;5134386;27;20176;-67
2024/02/17 00:18:23;;;;;;;2.92;2.10;;;16.10;64.70;;;;;;5133951;27;20206;-67
2024/02/17 00:20:48;;;;;;;3.33;2.63;;;16.10;64.70;;;;;;5134070;27;20184;-68
2024/02/17 00:23:14;;;;;;;2.85;2.20;;;16.10;64.70;;;;;;5134611;27;20545;-67
2024/02/17 00:25:40;;;;;;;3.58;2.55;;;16.10;64.80;;;;;;5133571;27;20179;-68
2024/02/17 00:28:05;;;;;;;2.58;2.38;;;16.10;64.80;;;;;;5134330;27;20168;-68
2024/02/17 00:30:31;;;;;;;3.10;2.40;;;16.10;64.70;;;;;;5133514;27;20173;-68
2024/02/17 00:32:56;;;;;;;3.42;2.63;;;16.10;64.70;;;;;;5133268;27;20695;-68
2024/02/17 00:35:22;;;;;;;3.60;2.35;;;16.10;64.70;;;;;;5133860;27;20654;-68
2024/02/17 00:37:48;;;;;;;3.05;2.47;;;16.00;64.70;;;;;;5133743;27;20303;-68
2024/02/17 00:40:13;;;;;;;3.55;2.70;;;16.10;64.80;;;;;;5133145;27;20172;-67
2024/02/17 00:42:40;;;;;;;3.47;2.75;;;16.10;64.70;;;;;;5133786;27;20199;-68
2024/02/17 00:45:06;;;;;;;2.97;2.38;;;16.10;64.70;;;;;;5133923;27;20172;-68
2024/02/17 00:47:31;;;;;;;4.30;2.50;;;16.00;64.70;;;;;;5132756;27;20172;-67
2024/02/17 00:49:56;;;;;;;2.78;2.28;;;16.10;64.70;;;;;;5134122;27;20169;-68
2024/02/17 00:52:22;;;;;;;2.92;2.42;;;16.00;64.70;;;;;;5133562;27;20176;-67
2024/02/17 00:54:47;;;;;;;4.40;2.53;;;16.00;64.70;;;;;;5132858;27;20627;-68
2024/02/17 00:57:13;;;;;;;3.05;2.85;;;16.00;64.70;;;;;;5133427;27;20172;-67
2024/02/17 00:59:38;;;;;;;3.00;2.13;;;16.00;64.60;;;;;;5133094;27;20218;-67
2024/02/17 01:02:04;;;;;;;3.78;2.70;;;16.00;64.70;;;;;;5132876;27;20175;-67
2024/02/17 01:04:30;;;;;;;2.80;2.35;;;16.00;64.70;;;;;;5133410;27;20221;-67
2024/02/17 01:06:55;;;;;;;3.05;2.40;;;16.00;64.60;;;;;;5133681;27;20191;-69
2024/02/17 01:09:21;;;;;;;2.63;2.40;;;16.00;64.60;;;;;;5132524;27;20180;-69
2024/02/17 01:11:46;;;;;;;3.85;3.03;;;16.00;64.70;;;;;;5133684;27;20510;-69
2024/02/17 01:14:12;;;;;;;2.95;2.60;;;15.90;64.60;;;;;;5133534;27;20176;-69
2024/02/17 01:16:37;;;;;;;6.45;3.13;;;16.00;64.70;;;;;;5132312;27;20198;-70
2024/02/17 01:19:03;;;;;;;3.15;2.33;;;16.00;64.70;;;;;;5133146;27;20200;-69
2024/02/17 01:21:31;;;;;;;2.72;2.53;;;15.90;64.50;;;;;;5132930;27;20172;-69
2024/02/17 01:23:58;;;;;;;3.35;3.00;;;15.90;64.60;;;;;;5132436;27;20212;-69
2024/02/17 01:26:23;;;;;;;3.10;2.72;;;16.00;64.70;;;;;;5133018;27;20214;-69
2024/02/17 01:28:52;;;;;;;3.67;2.72;;;16.00;64.70;;;;;;5132536;27;20208;-69
2024/02/17 01:31:17;;;;;;;3.65;2.72;;;16.00;64.70;;;;;;5131593;27;20576;-69
2024/02/17 01:33:43;;;;;;;2.67;2.22;;;16.00;64.70;;;;;;5133021;27;20180;-69
2024/02/17 01:36:16;;;;;;;4.57;2.63;;;16.00;64.70;;;;;;5132653;27;20173;-69
2024/02/17 01:38:42;;;;;;;5.55;3.15;;;16.00;64.80;;;;;;5132755;27;20686;-70
2024/02/17 01:41:07;;;;;;;2.80;2.40;;;16.00;64.70;;;;;;5133105;27;20177;-69
2024/02/17 01:43:34;;;;;;;3.53;2.75;;;16.00;64.80;;;;;;5131995;27;20165;-67
2024/02/17 01:45:59;;;;;;;2.85;2.60;;;15.90;64.70;;;;;;5132954;27;20176;-70
2024/02/17 01:48:25;;;;;;;4.25;3.00;;;15.90;64.70;;;;;;5132851;27;20168;-70
2024/02/17 01:50:50;;;;;;;3.22;2.72;;;16.00;64.80;;;;;;5132073;27;20177;-69
2024/02/17 01:53:16;;;;;;;2.60;2.33;;;15.90;64.70;;;;;;5131390;28;20267;-69
2024/02/17 01:55:42;;;;;;;3.30;2.55;;;15.90;64.70;;;;;;5132518;28;20264;-68
2024/02/17 01:58:07;;;;;;;3.00;2.50;;;16.00;64.80;;;;;;5131965;28;20200;-68
2024/02/17 02:00:33;;;;;;;3.38;2.90;;;15.90;64.70;;;;;;5132480;27;20169;-68
2024/02/17 02:02:58;;;;;;;3.60;2.53;;;15.90;64.70;;;;;;5131763;28;20177;-68
2024/02/17 02:05:24;;;;;;;2.53;2.33;;;15.90;64.70;;;;;;5131935;28;20517;-68
2024/02/17 02:07:49;;;;;;;2.60;2.40;;;15.90;64.70;;;;;;5132914;28;20164;-69
2024/02/17 02:10:15;;;;;;;3.00;2.67;;;15.90;64.70;;;;;;5134243;27;20217;-69
2024/02/17 02:12:41;;;;;;;2.80;2.50;;;15.90;64.70;;;;;;5135924;27;20175;-69
2024/02/17 02:15:10;;;;;;;2.50;2.30;;;15.90;64.70;;;;;;5136760;27;20180;-68
2024/02/17 02:17:39;;;;;;;3.42;2.30;;;15.90;64.70;;;;;;5136604;27;20237;-69
2024/02/17 02:20:06;;;;;;;2.72;2.45;;;15.90;64.70;;;;;;5136078;27;20626;-68
2024/02/17 02:22:32;;;;;;;3.42;3.13;;;15.90;64.70;;;;;;5136487;27;20177;-68
2024/02/17 02:24:59;;;;;;;3.20;2.90;;;15.90;64.70;;;;;;5136717;27;20181;-68
2024/02/17 02:27:25;;;;;;;3.90;2.97;;;15.90;64.70;;;;;;5135570;27;20740;-69
2024/02/17 02:29:52;;;;;;;4.53;2.90;;;15.90;64.70;;;;;;5136494;27;20180;-68
2024/02/17 02:32:18;;;;;;;2.78;2.58;;;15.90;64.70;;;;;;5135798;27;20176;-69
2024/02/17 02:34:44;;;;;;;3.35;2.92;;;15.90;64.70;;;;;;5136345;27;20176;-69
2024/02/17 02:37:10;;;;;;;3.65;2.80;;;15.90;64.70;;;;;;5136303;27;20548;-69
2024/02/17 02:39:35;;;;;;;3.53;2.40;;;15.90;64.70;;;;;;5135186;27;20237;-68
2024/02/17 02:42:01;;;;;;;3.80;2.50;;;15.90;64.70;;;;;;5136184;27;20177;-68
2024/02/17 02:44:26;;;;;;;3.25;2.90;;;15.90;64.70;;;;;;5136003;27;20263;-69
2024/02/17 02:46:52;;;;;;;3.85;3.00;;;15.90;64.70;;;;;;5134626;27;20204;-69
2024/02/17 02:49:17;;;;;;;5.43;3.13;;;15.90;64.70;;;;;;5136098;27;20639;-69
2024/02/17 02:51:43;;;;;;;3.03;2.55;;;15.80;64.60;;;;;;5136298;27;20639;-69
2024/02/17 02:54:08;;;;;;;3.97;3.17;;;15.90;64.70;;;;;;5135501;27;20241;-69
2024/02/17 02:56:34;;;;;;;3.85;2.85;;;15.90;64.70;;;;;;5135504;27;20212;-69
2024/02/17 02:58:59;;;;;;;2.83;2.63;;;15.90;64.70;;;;;;5135965;27;20208;-68
2024/02/17 03:01:25;;;;;;;2.85;2.65;;;15.80;64.50;;;;;;5135185;27;20176;-68
2024/02/17 03:03:50;;;;;;;3.55;2.90;;;15.90;64.70;;;;;;5136130;27;20184;-68
2024/02/17 03:06:16;;;;;;;4.78;2.80;;;15.80;64.60;;;;;;5136110;27;20169;-68
2024/02/17 03:08:42;;;;;;;3.50;2.92;;;15.80;64.60;;;;;;5134934;27;20262;-69
2024/02/17 03:11:07;;;;;;;3.58;3.13;;;15.80;64.60;;;;;;5135817;27;20193;-69
2024/02/17 03:13:36;;;;;;;3.47;3.10;;;15.90;65.50;;;;;;5135744;27;20165;-69
2024/02/17 03:16:01;;;;;;;3.22;2.92;;;15.80;64.60;;;;;;5135433;27;20200;-68
2024/02/17 03:18:27;;;;;;;3.60;2.88;;;15.80;64.60;;;;;;5135535;27;20239;-68
2024/02/17 03:20:53;;;;;;;4.13;2.47;;;15.80;64.60;;;;;;5135331;27;20165;-69
2024/02/17 03:23:19;;;;;;;3.80;2.90;;;15.80;64.60;;;;;;5134766;27;20183;-68
2024/02/17 03:25:44;;;;;;;3.25;2.55;;;15.80;64.70;;;;;;5135377;27;20168;-68
2024/02/17 03:28:10;;;;;;;3.15;2.70;;;15.80;64.60;;;;;;5135330;27;20177;-68
2024/02/17 03:30:35;;;;;;;4.30;2.88;;;15.80;64.60;;;;;;5134719;27;20692;-69
2024/02/17 03:33:01;;;;;;;3.08;2.55;;;15.80;64.60;;;;;;5135610;27;20168;-68
2024/02/17 03:35:30;;;;;;;4.40;3.00;;;15.80;64.60;;;;;;5134379;27;20176;-69
2024/02/17 03:37:55;;;;;;;3.22;2.80;;;15.80;64.70;;;;;;5135213;27;20204;-69
2024/02/17 03:40:21;;;;;;;3.85;3.08;;;15.80;64.70;;;;;;5134872;27;20694;-68
2024/02/17 03:42:47;;;;;;;3.65;3.00;;;15.80;64.60;;;;;;5134635;27;20507;-70
2024/02/17 03:45:12;;;;;;;3.58;3.15;;;15.80;64.60;;;;;;5135172;27;20650;-68
2024/02/17 03:47:38;;;;;;;3.88;3.20;;;15.80;64.60;;;;;;5134913;27;20181;-69
2024/02/17 03:50:04;;;;;;;3.70;3.30;;;15.80;64.60;;;;;;5134340;27;20181;-69
2024/02/17 03:52:29;;;;;;;3.47;2.88;;;15.80;64.60;;;;;;5134772;27;20177;-69
2024/02/17 03:54:55;;;;;;;4.10;3.13;;;15.80;64.70;;;;;;5134716;27;20686;-68
2024/02/17 03:57:21;;;;;;;4.40;3.13;;;15.70;64.60;;;;;;5133809;27;20635;-68
2024/02/17 03:59:46;;;;;;;3.15;2.60;;;15.80;64.60;;;;;;5135044;27;20243;-69
2024/02/17 04:02:12;;;;;;;3.33;2.78;;;15.70;64.60;;;;;;5134711;27;20259;-68
2024/02/17 04:04:37;;;;;;;3.78;2.95;;;15.80;64.70;;;;;;5133869;27;20169;-69
2024/02/17 04:07:03;;;;;;;4.00;3.10;;;15.80;64.70;;;;;;5134772;27;20255;-69
2024/02/17 04:09:28;;;;;;;4.35;3.17;;;15.80;64.70;;;;;;5134312;27;20278;-68
2024/02/17 04:11:54;;;;;;;5.25;3.35;;;15.80;65.60;;;;;;5133934;27;20168;-69
2024/02/17 04:14:20;;;;;;;3.25;2.95;;;15.70;64.70;;;;;;5134325;27;20176;-69
2024/02/17 04:16:45;;;;;;;3.33;2.90;;;15.80;64.70;;;;;;5134480;27;20215;-69
2024/02/17 04:19:11;;;;;;;3.97;3.05;;;15.70;64.70;;;;;;5133553;27;20212;-68
2024/02/17 04:21:36;;;;;;;3.78;3.38;;;15.70;64.60;;;;;;5133996;27;20179;-68
2024/02/17 04:24:03;;;;;;;3.50;2.97;;;15.70;64.60;;;;;;5134306;27;20225;-68
2024/02/17 04:26:29;;;;;;;3.30;3.00;;;15.70;64.60;;;;;;5133460;27;20203;-68
2024/02/17 04:28:54;;;;;;;3.60;3.30;;;15.70;64.70;;;;;;5134504;27;20180;-68
2024/02/17 04:31:20;;;;;;;3.38;3.08;;;15.70;64.70;;;;;;5134095;27;20549;-68
2024/02/17 04:33:45;;;;;;;3.17;2.88;;;15.70;64.70;;;;;;5132845;27;20255;-69
2024/02/17 04:36:11;;;;;;;4.30;2.92;;;15.80;64.80;;;;;;5134285;27;20175;-69
2024/02/17 04:38:38;;;;;;;3.28;2.67;;;15.70;64.70;;;;;;5133659;27;20204;-69
2024/02/17 04:41:03;;;;;;;3.30;3.03;;;15.70;64.70;;;;;;5133536;27;20173;-69
2024/02/17 04:43:29;;;;;;;3.88;3.00;;;15.80;64.70;;;;;;5133816;27;20182;-69
2024/02/17 04:45:54;;;;;;;3.03;2.60;;;15.70;64.70;;;;;;5133330;27;20202;-69
2024/02/17 04:48:20;;;;;;;3.03;2.83;;;15.70;64.70;;;;;;5133620;27;20164;-69
2024/02/17 04:50:45;;;;;;;3.40;3.00;;;15.70;64.70;;;;;;5133908;27;20180;-69
2024/02/17 04:53:11;;;;;;;3.70;2.92;;;15.70;64.70;;;;;;5133091;27;20180;-69
2024/02/17 04:55:37;;;;;;;4.10;2.70;;;15.70;64.70;;;;;;5133247;27;20219;-68
2024/02/17 04:58:02;;;;;;;4.10;3.40;;;15.70;64.70;;;;;;5133905;27;20208;-68
2024/02/17 05:00:28;;;;;;;3.63;3.13;;;15.70;64.70;;;;;;5132723;27;20164;-68
2024/02/17 05:02:53;;;;;;;5.93;2.92;;;15.70;64.70;;;;;;5133813;27;20255;-68
2024/02/17 05:05:22;;;;;;;3.75;3.28;;;15.70;64.70;;;;;;5133387;27;20593;-68
2024/02/17 05:07:48;;;;;;;4.03;2.95;;;15.70;64.70;;;;;;5132894;27;20252;-70
2024/02/17 05:10:14;;;;;;;3.53;2.92;;;15.70;64.70;;;;;;5133534;27;20653;-69
2024/02/17 05:12:39;;;;;;;3.25;2.50;;;15.70;64.70;;;;;;5132188;27;20195;-70
2024/02/17 05:15:06;;;;;;;3.70;2.92;;;15.70;64.80;;;;;;5112327;28;20188;-68
2024/02/17 05:17:32;;;;;;;4.00;3.38;;;15.70;64.70;;;;;;5112595;28;20172;-69
2024/02/17 05:19:57;;;;;;;4.15;2.85;;;15.70;64.70;;;;;;5112714;28;20555;-68
2024/02/17 05:22:23;;;;;;;3.90;3.25;;;15.60;64.70;;;;;;5111786;28;20241;-68
2024/02/17 05:24:49;;;;;;;3.00;2.80;;;15.70;64.70;;;;;;5112741;28;20716;-69
2024/02/17 05:27:14;;;;;;;3.15;2.90;;;15.70;64.70;;;;;;5112840;28;20206;-68
2024/02/17 05:29:40;;;;;;;2.88;2.67;;;15.70;64.70;;;;;;5111528;28;20550;-68
2024/02/17 05:32:07;;;;;;;3.47;3.10;;;15.60;64.70;;;;;;5112667;28;20204;-68
2024/02/17 05:34:32;;;;;;;6.60;3.60;;;15.70;64.80;;;;;;5112402;28;20173;-68
2024/02/17 05:36:58;;;;;;;4.13;3.25;;;15.60;64.90;;;;;;5111888;28;20242;-69
2024/02/17 05:39:23;;;;;;;4.50;3.17;;;15.70;64.80;;;;;;5111670;28;20329;-68
2024/02/17 05:41:50;;;;;;;4.03;3.20;;;15.70;64.80;;;;;;5112518;28;20222;-68
2024/02/17 05:44:16;;;;;;;3.15;2.53;;;15.60;64.70;;;;;;5111806;28;20185;-69
2024/02/17 05:46:41;;;;;;;3.72;3.17;;;15.60;64.70;;;;;;5112290;28;20233;-69
2024/02/17 05:49:07;;;;;;;4.20;3.15;;;15.60;64.70;;;;;;5111816;28;20172;-69
2024/02/17 05:51:32;;;;;;;3.40;2.70;;;15.60;64.70;;;;;;5112010;28;20177;-68
2024/02/17 05:53:58;;;;;;;4.32;3.05;;;15.60;64.70;;;;;;5112406;28;20260;-68
2024/02/17 05:56:24;;;;;;;2.58;2.38;;;15.60;64.70;;;;;;5111251;28;20225;-68
2024/02/17 05:58:49;;;;;;;3.42;3.10;;;15.60;64.70;;;;;;5112213;28;20670;-68
2024/02/17 06:01:15;;;;;;;3.20;2.90;;;15.60;64.70;;;;;;5112523;28;20259;-68
2024/02/17 06:03:40;;;;;;;3.55;2.75;;;15.60;64.70;;;;;;5111229;28;20627;-68
2024/02/17 06:06:06;;;;;;;4.82;2.95;;;15.60;64.80;;;;;;5112219;28;20169;-69
2024/02/17 06:08:31;;;;;;;3.00;2.38;;;15.60;65.60;;;;;;5111951;28;20181;-68
2024/02/17 06:10:57;;;;;;;3.20;2.88;;;15.60;64.70;;;;;;5111700;28;20631;-69
2024/02/17 06:13:24;;;;;;;3.47;3.08;;;15.60;64.70;;;;;;5112045;28;20636;-69
2024/02/17 06:15:50;;;;;;;3.35;2.83;;;15.60;64.70;;;;;;5112244;28;20169;-68
2024/02/17 06:21:13;;;;;;;3.25;2.50;;;15.60;64.80;;;;;;5112204;28;20180;-68
2024/02/17 06:23:41;;;;;;;2.75;2.55;;;15.60;64.80;;;;;;5112055;28;20585;-68
2024/02/17 06:26:06;;;;;;;3.05;2.50;;;15.60;64.80;;;;;;5110229;28;20636;-68
2024/02/17 06:28:32;;;;;;;3.80;2.50;;;15.60;64.80;;;;;;5111873;28;20185;-68
2024/02/17 06:30:57;;;;;;;3.63;2.78;;;15.60;64.80;;;;;;5112178;28;20181;-68
2024/02/17 06:33:23;;;;;;;2.95;2.65;;;15.60;64.80;;;;;;5110878;28;20174;-69
2024/02/17 06:35:49;;;;;;;3.85;2.95;;;15.60;64.80;;;;;;5112295;28;20166;-69
2024/02/17 06:38:15;;;;;;;3.13;2.63;;;15.60;65.60;;;;;;5111576;28;20201;-69
2024/02/17 06:40:41;;;;;;;2.85;2.58;;;15.60;64.80;;;;;;5111817;28;20181;-69
2024/02/17 06:43:06;;;;;;;4.65;3.10;;;15.60;64.80;;;;;;5111956;28;20194;-69
2024/02/17 06:45:32;;;;;;;3.05;2.65;;;15.60;64.80;;;;;;5110993;28;20178;-69
2024/02/17 06:47:58;;;;;;;3.78;2.67;;;15.60;64.80;;;;;;5111807;28;20181;-68
2024/02/17 06:50:23;;;;;;;2.80;2.60;;;15.60;64.80;;;;;;5111802;28;20619;-68
2024/02/17 06:52:49;;;;;;;3.10;2.38;;;15.60;64.90;;;;;;5111433;28;20268;-69
2024/02/17 06:55:14;;;;;;;2.55;2.25;;;15.70;65.20;;;;;;5111735;28;20220;-68
2024/02/17 06:57:40;;;;;;;2.63;2.42;;;15.70;64.90;;;;;;5115075;28;20169;-68
2024/02/17 07:00:06;;;;;;;2.88;2.40;;;15.80;64.80;;;;;;5114738;28;20169;-68
2024/02/17 07:02:33;;;;;;;2.35;2.15;;;15.90;64.70;;;;;;5115005;28;20169;-68
2024/02/17 07:04:58;;;;;;;3.50;2.50;;;16.00;64.50;;;;;;5115565;28;20177;-68
2024/02/17 07:07:24;;;;;;;3.35;2.22;;;16.20;64.30;;;;;;5114431;28;20181;-69
2024/02/17 07:09:49;;;;;;;3.97;1.95;;;16.40;64.00;;;;;;5115498;28;20180;-69
2024/02/17 07:12:15;;;;;;;2.42;1.90;;;16.50;63.60;;;;;;5115318;28;20181;-68
2024/02/17 07:14:40;;;;;;;2.08;1.88;;;16.60;63.30;;;;;;5114121;28;20520;-69
2024/02/17 07:17:06;;;;;;;2.58;1.90;;;16.70;63.10;;;;;;5115087;28;20250;-68
2024/02/17 07:19:32;;;;;;;2.67;1.80;;;16.90;62.90;;;;;;5114850;28;20244;-68
2024/02/17 07:21:57;;;;;;;2.35;1.70;;;17.00;62.60;;;;;;5114367;28;20546;-68
2024/02/17 07:24:23;;;;;;;2.55;1.80;;;17.00;62.30;;;;;;5114923;28;20173;-68
2024/02/17 07:26:53;;;;;;;3.75;2.08;;;17.10;62.10;;;;;;5115001;28;20176;-68
2024/02/17 07:29:19;;;;;;;2.28;2.03;;;17.10;61.90;;;;;;5114010;28;20177;-68
2024/02/17 07:31:44;;;;;;;2.63;2.17;;;17.10;62.00;;;;;;5114815;28;20169;-69
2024/02/17 07:34:13;;;;;;;2.42;1.88;;;17.00;62.00;;;;;;5115076;28;20168;-69
2024/02/17 07:36:38;;;;;;;3.55;2.10;;;17.00;62.10;;;;;;5113979;28;20180;-72
2024/02/17 07:39:04;;;;;;;2.20;2.00;;;17.10;62.20;;;;;;5114615;28;20208;-69
2024/02/17 07:41:30;;;;;;;2.47;1.60;;;17.10;62.20;;;;;;5114284;28;20195;-69
2024/02/17 07:43:55;;;;;;;2.03;1.85;;;17.10;62.10;;;;;;5114877;28;20177;-69
2024/02/17 07:46:21;;;;;;;3.17;1.92;;;17.20;62.00;;;;;;5114153;28;20161;-69
2024/02/17 07:48:47;;;;;;;2.05;1.70;;;17.20;61.90;;;;;;5113788;28;20234;-69
2024/02/17 07:51:12;;;;;;;2.25;1.75;;;17.20;61.90;;;;;;5114039;28;20176;-69
2024/02/17 07:53:38;;;;;;;2.10;1.60;;;17.20;61.80;;;;;;5114026;28;20185;-69
2024/02/17 07:56:05;;;;;;;2.13;1.67;;;17.30;61.90;;;;;;5113440;28;20217;-69
2024/02/17 07:58:30;;;;;;;2.45;1.98;;;17.30;61.80;;;;;;5113900;28;20212;-68
2024/02/17 08:00:56;;;;;;;2.58;1.70;;;17.30;61.60;;;;;;5114255;28;20549;-68
2024/02/17 08:03:21;;;;;;;2.40;1.80;;;17.40;61.70;;;;;;5113504;28;20651;-68
2024/02/17 08:05:48;;;;;;;2.33;1.80;;;17.40;61.60;;;;;;5114172;28;20169;-69
2024/02/17 08:08:13;;;;;;;2.85;2.05;;;17.40;61.60;;;;;;5094981;28;20662;-69
2024/02/17 08:10:39;;;;;;;1.65;1.35;;;17.40;61.60;;;;;;5112871;28;20173;-69
2024/02/17 08:13:04;;;;;;;2.25;1.80;;;17.40;61.70;;;;;;5114097;28;20173;-69
2024/02/17 08:15:30;;;;;;;1.77;1.63;;;17.40;61.50;;;;;;5113806;28;20635;-69
2024/02/17 08:17:55;;;;;;;1.98;1.70;;;17.50;61.60;;;;;;5112487;28;20212;-69
2024/02/17 08:20:21;;;;;;;2.50;1.85;;;17.40;61.50;;;;;;5113279;28;20173;-69
2024/02/17 08:22:48;;;;;;;2.15;1.65;;;17.50;61.40;;;;;;5114190;28;20199;-69
2024/02/17 08:25:13;;;;;;;2.03;1.75;;;17.60;61.30;;;;;;5113202;28;20248;-68
2024/02/17 08:27:43;;;;;;;2.20;1.65;;;17.60;61.20;;;;;;5113539;28;20689;-67
2024/02/17 08:30:09;;;;;;;3.28;2.05;;;17.50;61.30;;;;;;5113679;28;20267;-68
2024/02/17 08:32:34;;;;;;;2.20;1.55;;;17.50;61.50;;;;;;5112799;28;20252;-68
2024/02/17 08:35:00;;;;;;;2.78;1.70;;;17.40;61.70;;;;;;5113716;28;20173;-68
2024/02/17 08:37:26;;;;;;;2.50;2.20;;;17.40;61.70;;;;;;5113057;28;20530;-68
2024/02/17 08:39:51;;;;;;;2.25;1.75;;;17.30;62.80;;;;;;5112555;28;20216;-68
2024/02/17 08:42:17;;;;;;;1.90;1.70;;;17.30;62.00;;;;;;5113230;28;20543;-69
2024/02/17 08:44:43;;;;;;;2.85;2.15;;;17.20;62.10;;;;;;5113221;28;20184;-69
2024/02/17 08:47:09;;;;;;;2.83;2.42;;;17.30;62.30;;;;;;5112960;28;20180;-69
2024/02/17 08:49:34;;;;;;;4.80;2.70;;;17.20;62.20;;;;;;5113100;28;20173;-68
2024/02/17 08:52:01;;;;;;;5.38;2.85;;;17.20;62.30;;;;;;5112794;28;20173;-67
2024/02/17 08:54:26;;;;;;;2.65;2.25;;;17.20;62.10;;;;;;5112852;28;20173;-68
2024/02/17 08:56:53;;;;;;;4.60;2.97;;;17.20;62.20;;;;;;5112981;28;20228;-67
2024/02/17 08:59:19;;;;;;;3.15;2.47;;;17.20;62.30;;;;;;5111997;28;20233;-67
2024/02/17 09:01:44;;;;;;;4.47;2.63;;;17.20;62.40;;;;;;5113337;28;20708;-66
2024/02/17 09:04:10;;;;;;;6.28;3.13;;;17.10;62.40;;;;;;5113208;28;20184;-66
2024/02/17 09:06:35;;;;;;;4.65;2.88;;;17.10;62.60;;;;;;5112147;28;20165;-67
2024/02/17 09:09:01;;;;;;;2.78;2.55;;;17.00;62.80;;;;;;5113061;28;20868;-68
2024/02/17 09:11:26;;;;;;;3.53;2.42;;;17.10;63.80;;;;;;5112141;28;20184;-66
2024/02/17 09:13:52;;;;;;;4.55;2.45;;;17.10;62.90;;;;;;5111912;28;20188;-67
2024/02/17 09:16:17;;;;;;;2.88;2.50;;;17.10;62.90;;;;;;5112768;28;20169;-67
2024/02/17 09:18:43;;;;;;;4.78;2.65;;;17.10;62.90;;;;;;5112567;28;20220;-67
2024/02/17 09:21:09;;;;;;;4.03;2.50;;;17.20;62.90;;;;;;5112230;28;20177;-66
2024/02/17 09:23:34;;;;;;;4.18;3.15;;;17.10;62.80;;;;;;5112409;28;20640;-66
2024/02/17 09:26:00;;;;;;;3.17;2.63;;;17.20;62.80;;;;;;5112845;28;20177;-66
2024/02/17 09:28:25;;;;;;;4.47;2.75;;;17.20;62.90;;;;;;5111475;28;20218;-67
2024/02/17 09:30:51;;;;;;;2.97;2.67;;;17.20;63.10;;;;;;5112435;28;20531;-67
2024/02/17 09:33:17;;;;;;;3.60;2.83;;;17.10;63.10;;;;;;5112564;28;20191;-67
2024/02/17 09:35:43;;;;;;;3.72;2.90;;;17.10;63.10;;;;;;5111760;28;20256;-67
2024/02/17 09:38:08;;;;;;;4.45;2.63;;;17.10;62.90;;;;;;5112412;28;20759;-68
2024/02/17 09:40:34;;;;;;;4.40;2.35;;;17.10;62.90;;;;;;5112099;28;20260;-67
2024/02/17 09:42:59;;;;;;;3.08;2.50;;;17.10;63.10;;;;;;5111582;28;20169;-68
2024/02/17 09:45:26;;;;;;;3.30;2.60;;;17.10;63.10;;;;;;5112324;28;20268;-68
2024/02/17 09:47:52;;;;;;;4.50;2.92;;;17.10;63.20;;;;;;5112407;28;20169;-68
2024/02/17 09:50:18;;;;;;;3.15;2.40;;;17.00;63.20;;;;;;5093618;28;20169;-68
2024/02/17 09:52:48;;;;;;;2.90;2.58;;;17.00;63.20;;;;;;5111281;28;20161;-68
2024/02/17 09:55:14;;;;;;;2.80;2.22;;;17.00;63.30;;;;;;5110170;28;20227;-67
2024/02/17 09:57:40;;;;;;;3.35;2.90;;;17.00;63.30;;;;;;5111984;28;20177;-67
2024/02/17 10:00:08;;;;;;;3.15;2.75;;;17.00;63.30;;;;;;5112396;28;20208;-67
2024/02/17 10:02:34;;;;;;;3.92;2.53;;;17.00;63.30;;;;;;5111452;28;20184;-67
2024/02/17 10:04:59;;;;;;;4.22;2.50;;;17.00;63.40;;;;;;5112095;28;20176;-68
2024/02/17 10:07:25;;;;;;;4.32;2.55;;;17.00;63.90;;;;;;5111934;28;20192;-68
2024/02/17 10:09:50;;;;;;;2.67;2.35;;;17.00;63.40;;;;;;5111470;28;20169;-68
2024/02/17 10:12:17;;;;;;;4.35;2.42;;;16.90;63.40;;;;;;5112161;28;20194;-69
2024/02/17 10:14:43;;;;;;;2.70;2.40;;;17.00;63.70;;;;;;5112266;28;20177;-67
2024/02/17 10:17:11;;;;;;;3.95;2.50;;;17.00;63.40;;;;;;5110548;28;20226;-68
2024/02/17 10:19:41;;;;;;;3.60;2.83;;;17.00;63.40;;;;;;5111779;28;20221;-65
2024/02/17 10:22:06;;;;;;;7.55;3.30;;;16.90;63.40;;;;;;5111109;28;20263;-67
2024/02/17 10:24:32;;;;;;;5.82;3.47;;;17.00;63.40;;;;;;5110891;28;20322;-66
2024/02/17 10:26:57;;;;;;;6.15;5.55;;;17.00;63.40;;;;;;5112270;28;20177;-67
2024/02/17 10:29:23;;;;;;;4.82;4.32;;;16.90;63.40;;;;;;5110730;28;20177;-66
2024/02/17 10:31:49;;;;;;;4.53;4.13;;;17.00;63.40;;;;;;5113907;28;20165;-67
2024/02/17 10:34:15;;;;;;;5.20;3.80;;;17.00;63.40;;;;;;5115665;28;20173;-67
2024/02/17 10:36:40;;;;;;;4.40;3.72;;;17.00;63.40;;;;;;5115782;28;20640;-67
2024/02/17 10:39:06;;;;;;;8.57;4.00;;;17.00;63.40;;;;;;5115104;28;20663;-67
2024/02/17 10:41:34;;;;;;;5.38;3.78;;;17.20;63.60;;;;;;5115707;28;20261;-67
2024/02/17 10:44:00;;;;;;;5.03;3.20;;;17.00;63.40;;;;;;5115995;28;20210;-67
2024/02/17 10:46:27;;;;;;;4.28;2.80;;;17.00;63.50;;;;;;5114785;28;20253;-64
2024/02/17 10:48:59;;;;;;;5.30;3.30;;;17.00;63.60;;;;;;5115880;28;20185;-64
2024/02/17 10:51:25;;;;;;;3.47;2.90;;;17.00;63.50;;;;;;5113893;28;20169;-64
2024/02/17 10:53:55;;;;;;;5.07;2.92;;;17.00;63.50;;;;;;5114115;28;20511;-64
2024/02/17 10:56:20;;;;;;;3.50;2.70;;;17.00;63.60;;;;;;5097567;28;20243;-64
2024/02/17 10:58:46;;;;;;;4.00;2.90;;;16.90;63.60;;;;;;5113847;28;20308;-64
2024/02/17 11:01:14;;;;;;;3.90;2.40;;;16.90;63.70;;;;;;5114460;28;20592;-64
2024/02/17 11:03:41;;;;;;;5.72;2.88;;;16.90;63.70;;;;;;5114072;28;20220;-64
2024/02/17 11:06:09;;;;;;;4.28;3.20;;;16.90;63.70;;;;;;5114868;28;20165;-64
2024/02/17 11:08:35;;;;;;;4.95;3.03;;;16.90;63.70;;;;;;5114005;28;20181;-64
2024/02/17 11:11:26;;;;;;;5.00;2.80;;;16.90;63.70;;;;;;5115592;28;20527;-64
2024/02/17 11:13:53;;;;;;;3.33;2.85;;;16.90;63.70;;;;;;5114661;28;20173;-64
2024/02/17 11:16:19;;;;;;;3.00;2.60;;;16.90;63.60;;;;;;5115083;28;20200;-63
2024/02/17 11:18:46;;;;;;;5.63;2.90;;;16.90;63.70;;;;;;5114953;28;20211;-63
2024/02/17 11:21:11;;;;;;;4.18;2.90;;;16.90;63.70;;;;;;5114564;28;20173;-63
2024/02/17 11:23:37;;;;;;;3.42;2.13;;;16.90;63.70;;;;;;5113751;28;20168;-63
2024/02/17 11:26:06;;;;;;;3.95;3.03;;;16.90;63.70;;;;;;5115144;28;20180;-63
2024/02/17 11:28:31;;;;;;;3.83;2.47;;;16.90;63.80;;;;;;5112877;28;20187;-64
2024/02/17 11:30:58;;;;;;;4.43;2.70;;;16.90;63.70;;;;;;5096846;28;20252;-63
2024/02/17 11:33:28;;;;;;;2.58;2.38;;;16.90;63.70;;;;;;5114442;28;20181;-63
2024/02/17 11:35:54;;;;;;;3.63;2.85;;;16.90;63.70;;;;;;5114408;28;20177;-64
2024/02/17 11:38:25;;;;;;;3.63;2.38;;;16.90;63.80;;;;;;5114304;28;20659;-63
2024/02/17 11:40:55;;;;;;;4.35;2.58;;;16.90;63.80;;;;;;5113108;28;20184;-64
2024/02/17 11:43:22;;;;;;;4.32;2.50;;;16.90;63.80;;;;;;5114227;28;20222;-64
2024/02/17 11:45:47;;;;;;;3.15;2.53;;;16.90;63.80;;;;;;5113358;28;20181;-64
2024/02/17 11:48:13;;;;;;;3.03;2.20;;;16.80;63.70;;;;;;5113060;28;20181;-64
2024/02/17 11:50:39;;;;;;;2.97;2.40;;;16.90;63.80;;;;;;5114169;28;20179;-64
2024/02/17 11:53:05;;;;;;;2.85;2.35;;;16.80;63.70;;;;;;5114792;28;20181;-64
2024/02/17 11:55:31;;;;;;;3.40;2.13;;;16.80;63.70;;;;;;5113424;28;20231;-63
2024/02/17 11:57:56;;;;;;;2.95;2.30;;;16.80;63.70;;;;;;5096196;28;20169;-64
2024/02/17 12:00:23;;;;;;;3.90;2.47;;;16.80;64.70;;;;;;5112865;28;20526;-64
2024/02/17 12:02:49;;;;;;;3.10;2.10;;;16.80;63.70;;;;;;5113572;28;20174;-64
2024/02/17 12:05:15;;;;;;;2.35;2.17;;;16.80;63.70;;;;;;5114497;28;20188;-64
2024/02/17 12:07:41;;;;;;;3.13;2.45;;;16.90;63.90;;;;;;5114081;28;20229;-65
2024/02/17 12:10:11;;;;;;;3.28;2.50;;;16.90;63.90;;;;;;5113533;28;20165;-64
2024/02/17 12:12:39;;;;;;;6.45;2.63;;;16.90;63.80;;;;;;5113853;28;20535;-64
2024/02/17 12:15:11;;;;;;;4.28;2.88;;;16.80;63.70;;;;;;5112799;28;20184;-64
2024/02/17 12:17:43;;;;;;;3.53;2.10;;;16.80;63.80;;;;;;5113270;28;20528;-63
2024/02/17 12:20:14;;;;;;;3.22;2.20;;;16.80;63.80;;;;;;5112948;28;20212;-64
2024/02/17 12:22:42;;;;;;;3.05;1.90;;;16.80;63.80;;;;;;5113849;28;20180;-64
2024/02/17 12:25:07;;;;;;;2.20;1.92;;;16.80;63.90;;;;;;5113318;28;20181;-64
2024/02/17 12:27:33;;;;;;;2.47;2.20;;;16.80;64.00;;;;;;5112243;28;20306;-64
2024/02/17 12:29:59;;;;;;;2.25;2.05;;;16.80;63.90;;;;;;5113457;28;20173;-64
2024/02/17 12:32:24;;;;;;;3.17;1.88;;;16.80;63.90;;;;;;5113685;28;20165;-64
2024/02/17 12:34:50;;;;;;;5.30;2.30;;;16.80;64.00;;;;;;5113851;28;20170;-64
2024/02/17 12:37:16;;;;;;;3.50;2.20;;;16.80;63.90;;;;;;5113099;28;20173;-64
2024/02/17 12:39:43;;;;;;;5.93;2.88;;;16.80;63.80;;;;;;5113605;28;20213;-64
2024/02/17 12:42:08;;;;;;;4.35;2.15;;;16.80;63.80;;;;;;5113482;28;20173;-64
2024/02/17 12:44:34;;;;;;;2.45;2.22;;;16.80;63.70;;;;;;5112980;28;20241;-65